Time;durP1;ratioP1;P1;durP2;ratioP2;P2;SDS_P1;SDS_P2;PMS_P1;PMS_P2;Temp;Humidity;BMP_temperature;BMP_pressure;BME280_temperature;BME280_humidity;BME280_pressure;Samples;Min_cycle;Max_cycle;Signal;HPM_P1;HPM_P2
2022/07/17 00:00:45;;;;;;;2.72;0.85;;;;;;;;;;5117609;28;20235;-80
2022/07/17 00:03:14;;;;;;;0.90;0.90;;;;;;;;;;5118162;28;20231;-81
2022/07/17 00:05:42;;;;;;;1.20;1.20;;;;;;;;;;5118410;28;20642;-80
2022/07/17 00:08:10;;;;;;;0.90;0.90;;;;;;;;;;5117268;28;20243;-79
2022/07/17 00:10:42;;;;;;;0.73;0.73;;;;;;;;;;5119324;27;20239;-79
2022/07/17 00:13:11;;;;;;;1.08;1.00;;;;;;;;;;5118021;28;20218;-81
2022/07/17 00:15:38;;;;;;;1.10;1.00;;;;;;;;;;5119274;28;20223;-80
2022/07/17 00:18:07;;;;;;;1.88;0.98;;;;;;;;;;5117064;28;20219;-80
2022/07/17 00:20:35;;;;;;;1.33;1.08;;;;;;;;;;5119514;28;20310;-80
2022/07/17 00:23:03;;;;;;;1.00;0.90;;;;;;;;;;5119011;28;20253;-80
2022/07/17 00:25:32;;;;;;;1.00;0.77;;;;;;;;;;5113213;28;20236;-80
2022/07/17 00:28:01;;;;;;;1.42;1.00;;;;;;;;;;5097299;28;20196;-80
2022/07/17 00:30:28;;;;;;;0.77;0.70;;;;;;;;;;5098004;28;20243;-79
2022/07/17 00:32:56;;;;;;;1.75;0.80;;;;;;;;;;5097874;28;20235;-79
2022/07/17 00:35:24;;;;;;;3.22;1.23;;;;;;;;;;5098410;28;20242;-79
2022/07/17 00:37:51;;;;;;;2.30;0.90;;;;;;;;;;5097308;28;20640;-79
2022/07/17 00:40:23;;;;;;;0.73;0.73;;;;;;;;;;5098326;28;20204;-79
2022/07/17 00:42:51;;;;;;;1.27;1.10;;;;;;;;;;5097426;28;20231;-79
2022/07/17 00:45:24;;;;;;;1.05;0.90;;;;;;;;;;5097736;28;20236;-79
2022/07/17 00:47:55;;;;;;;1.05;0.85;;;;;;;;;;5096695;28;20287;-79
2022/07/17 00:50:25;;;;;;;1.17;1.08;;;;;;;;;;5097616;28;20193;-79
2022/07/17 00:52:53;;;;;;;2.05;1.15;;;;;;;;;;5098112;28;20232;-79
2022/07/17 00:55:21;;;;;;;2.58;1.10;;;;;;;;;;5097190;28;20652;-79
2022/07/17 00:57:50;;;;;;;1.27;1.27;;;;;;;;;;5097025;28;20228;-79
2022/07/17 01:00:19;;;;;;;1.60;1.00;;;;;;;;;;5097912;28;20607;-79
2022/07/17 01:02:48;;;;;;;0.88;0.88;;;;;;;;;;5097757;28;20227;-79
2022/07/17 01:05:16;;;;;;;2.80;1.55;;;;;;;;;;5097337;28;20200;-79
2022/07/17 01:07:44;;;;;;;1.90;1.70;;;;;;;;;;5096088;28;20644;-79
2022/07/17 01:10:12;;;;;;;1.70;1.60;;;;;;;;;;5096316;28;20258;-80
2022/07/17 01:12:41;;;;;;;2.70;0.70;;;;;;;;;;5097077;28;20187;-80
2022/07/17 01:15:10;;;;;;;1.25;0.90;;;;;;;;;;5097738;28;20196;-80
2022/07/17 01:17:40;;;;;;;2.17;1.42;;;;;;;;;;5096741;28;20635;-80
2022/07/17 01:20:10;;;;;;;2.13;1.00;;;;;;;;;;5096700;28;20252;-81
2022/07/17 01:22:43;;;;;;;1.10;1.00;;;;;;;;;;5096117;28;20236;-81
2022/07/17 01:25:11;;;;;;;1.13;1.00;;;;;;;;;;5099510;28;20210;-81
2022/07/17 01:27:39;;;;;;;0.98;0.85;;;;;;;;;;5116521;28;20236;-81
2022/07/17 01:30:09;;;;;;;1.60;1.23;;;;;;;;;;5118344;28;20282;-81
2022/07/17 01:32:38;;;;;;;0.82;0.82;;;;;;;;;;5118245;28;20227;-81
2022/07/17 01:35:07;;;;;;;3.45;0.95;;;;;;;;;;5117956;28;20206;-79
2022/07/17 01:37:35;;;;;;;1.35;1.25;;;;;;;;;;5116917;28;20597;-80
2022/07/17 01:40:05;;;;;;;1.55;1.35;;;;;;;;;;5118052;28;20258;-81
2022/07/17 01:42:33;;;;;;;1.23;1.00;;;;;;;;;;5118422;28;20664;-80
2022/07/17 01:45:01;;;;;;;0.85;0.85;;;;;;;;;;5118336;27;20242;-81
2022/07/17 01:47:28;;;;;;;1.48;1.38;;;;;;;;;;5117568;28;20231;-79
2022/07/17 01:49:57;;;;;;;0.82;0.82;;;;;;;;;;5118632;28;20243;-79
2022/07/17 01:52:26;;;;;;;1.38;0.88;;;;;;;;;;5118024;28;20235;-80
2022/07/17 01:54:54;;;;;;;1.00;0.90;;;;;;;;;;5117847;28;20256;-79
2022/07/17 01:57:23;;;;;;;2.00;0.90;;;;;;;;;;5098133;28;20242;-79
2022/07/17 01:59:51;;;;;;;0.90;0.90;;;;;;;;;;5097529;28;20228;-78
2022/07/17 02:02:18;;;;;;;1.02;0.80;;;;;;;;;;5097030;28;20725;-79
2022/07/17 02:04:46;;;;;;;1.23;0.82;;;;;;;;;;5102668;28;20228;-81
2022/07/17 02:07:14;;;;;;;1.50;0.95;;;;;;;;;;5105706;28;20592;-80
2022/07/17 02:09:41;;;;;;;1.52;0.80;;;;;;;;;;5104803;28;20220;-80
2022/07/17 02:12:09;;;;;;;0.88;0.88;;;;;;;;;;5100099;28;20208;-80
2022/07/17 02:14:38;;;;;;;0.70;0.70;;;;;;;;;;5097717;28;20239;-79
2022/07/17 02:17:05;;;;;;;1.17;0.90;;;;;;;;;;5097725;28;20638;-79
2022/07/17 02:19:33;;;;;;;2.47;1.00;;;;;;;;;;5098410;28;20266;-78
2022/07/17 02:22:00;;;;;;;1.45;0.93;;;;;;;;;;5099603;28;20317;-79
2022/07/17 02:24:28;;;;;;;1.38;1.15;;;;;;;;;;5099322;28;20200;-79
2022/07/17 02:26:55;;;;;;;2.75;1.48;;;;;;;;;;5114645;28;20249;-78
2022/07/17 02:29:23;;;;;;;2.35;0.80;;;;;;;;;;5117682;28;20251;-78
2022/07/17 02:31:52;;;;;;;1.52;0.98;;;;;;;;;;5118335;28;20223;-78
2022/07/17 02:34:19;;;;;;;2.50;2.03;;;;;;;;;;5117919;28;20234;-79
2022/07/17 02:36:47;;;;;;;0.80;0.80;;;;;;;;;;5117682;28;20249;-80
2022/07/17 02:39:14;;;;;;;2.60;1.20;;;;;;;;;;5117086;28;20973;-80
2022/07/17 02:41:42;;;;;;;0.80;0.80;;;;;;;;;;5116639;28;20227;-80
2022/07/17 02:44:09;;;;;;;1.77;1.10;;;;;;;;;;5116445;28;20199;-79
2022/07/17 02:46:37;;;;;;;1.15;1.00;;;;;;;;;;5115933;28;20219;-83
2022/07/17 02:49:06;;;;;;;1.70;1.08;;;;;;;;;;5115763;28;20258;-80
2022/07/17 02:51:33;;;;;;;2.05;1.17;;;;;;;;;;5115663;28;20235;-79
2022/07/17 02:54:01;;;;;;;2.03;1.00;;;;;;;;;;5115047;28;20231;-80
2022/07/17 02:56:28;;;;;;;1.38;1.30;;;;;;;;;;5100828;28;20661;-79
2022/07/17 02:58:56;;;;;;;1.00;0.85;;;;;;;;;;5094975;28;20220;-80
2022/07/17 03:01:24;;;;;;;1.27;0.80;;;;;;;;;;5094880;28;20214;-78
2022/07/17 03:03:51;;;;;;;2.25;0.80;;;;;;;;;;5096176;28;20299;-79
2022/07/17 03:06:20;;;;;;;2.47;0.70;;;;;;;;;;5094353;28;20696;-79
2022/07/17 03:08:47;;;;;;;1.48;1.00;;;;;;;;;;5096276;28;20848;-79
2022/07/17 03:11:15;;;;;;;0.95;0.88;;;;;;;;;;5095462;28;20236;-80
2022/07/17 03:13:42;;;;;;;1.02;0.82;;;;;;;;;;5098383;28;20221;-79
2022/07/17 03:16:10;;;;;;;1.70;0.82;;;;;;;;;;5099119;28;20231;-80
2022/07/17 03:18:37;;;;;;;1.88;0.90;;;;;;;;;;5098524;28;20255;-80
2022/07/17 03:21:05;;;;;;;1.15;0.70;;;;;;;;;;5098381;28;20665;-79
2022/07/17 03:23:34;;;;;;;0.70;0.70;;;;;;;;;;5085109;22;20707;-76
2022/07/17 03:26:01;;;;;;;0.80;0.70;;;;;;;;;;5068163;28;20304;-77
2022/07/17 03:28:29;;;;;;;0.90;0.90;;;;;;;;;;5074200;28;20284;-76
2022/07/17 03:30:56;;;;;;;0.70;0.70;;;;;;;;;;5070539;28;20276;-75
2022/07/17 03:33:24;;;;;;;2.38;0.90;;;;;;;;;;5055388;28;20336;-76
2022/07/17 03:35:51;;;;;;;0.95;0.93;;;;;;;;;;5049695;28;20202;-76
2022/07/17 03:38:19;;;;;;;1.17;1.00;;;;;;;;;;5049494;28;20208;-76
2022/07/17 03:40:48;;;;;;;1.02;0.90;;;;;;;;;;5050620;28;20309;-75
2022/07/17 03:43:15;;;;;;;1.50;1.00;;;;;;;;;;5050673;28;20304;-76
2022/07/17 03:45:43;;;;;;;1.05;0.80;;;;;;;;;;5050208;28;20569;-76
2022/07/17 03:48:11;;;;;;;1.00;0.90;;;;;;;;;;5050120;28;20305;-76
2022/07/17 03:50:38;;;;;;;1.00;1.00;;;;;;;;;;5050341;28;20204;-74
2022/07/17 03:53:06;;;;;;;2.85;0.90;;;;;;;;;;5048398;28;20301;-76
2022/07/17 03:55:33;;;;;;;3.63;1.25;;;;;;;;;;5045427;28;20281;-76
2022/07/17 03:58:02;;;;;;;0.80;0.80;;;;;;;;;;5048486;28;20230;-75
2022/07/17 04:00:30;;;;;;;1.10;1.10;;;;;;;;;;5049849;28;20991;-76
2022/07/17 04:02:57;;;;;;;0.75;0.75;;;;;;;;;;5045932;28;20650;-76
2022/07/17 04:05:25;;;;;;;0.70;0.70;;;;;;;;;;5050395;28;20283;-76
2022/07/17 04:07:52;;;;;;;1.67;0.98;;;;;;;;;;5049066;28;20281;-76
2022/07/17 04:10:20;;;;;;;1.20;1.05;;;;;;;;;;5048572;28;20198;-76
2022/07/17 04:12:47;;;;;;;1.45;1.00;;;;;;;;;;5050094;28;20312;-76
2022/07/17 04:15:48;;;;;;;1.00;0.90;;;;;;;;;;5049113;28;20202;-74
2022/07/17 04:18:04;;;;;;;1.70;0.90;;;;;;;;;;5049533;28;20573;-76
2022/07/17 04:20:32;;;;;;;0.70;0.70;;;;;;;;;;5049319;28;20316;-76
2022/07/17 04:22:59;;;;;;;0.65;0.65;;;;;;;;;;5070975;22;20356;-83
2022/07/17 04:25:27;;;;;;;1.50;1.40;;;;;;;;;;5052068;28;20724;-85
2022/07/17 04:27:55;;;;;;;0.60;0.60;;;;;;;;;;5063863;28;20214;-83
2022/07/17 04:30:24;;;;;;;0.75;0.68;;;;;;;;;;5062968;28;20229;-84
2022/07/17 04:32:51;;;;;;;0.60;0.60;;;;;;;;;;5052521;28;20257;-83
2022/07/17 04:35:19;;;;;;;0.70;0.70;;;;;;;;;;5053404;28;20228;-83
2022/07/17 04:37:47;;;;;;;0.90;0.90;;;;;;;;;;5051156;28;20241;-83
2022/07/17 04:40:14;;;;;;;0.60;0.60;;;;;;;;;;5048761;28;20669;-83
2022/07/17 04:42:42;;;;;;;0.73;0.73;;;;;;;;;;5049125;28;20646;-83
2022/07/17 04:45:11;;;;;;;0.40;0.40;;;;;;;;;;5053025;28;20733;-84
2022/07/17 04:47:40;;;;;;;0.98;0.95;;;;;;;;;;5051556;28;20233;-84
2022/07/17 04:50:09;;;;;;;0.65;0.65;;;;;;;;;;5046827;28;20241;-84
2022/07/17 04:52:37;;;;;;;1.02;0.90;;;;;;;;;;5050066;28;20212;-83
2022/07/17 04:55:05;;;;;;;0.93;0.85;;;;;;;;;;5051903;28;20230;-84
2022/07/17 04:57:32;;;;;;;1.15;0.80;;;;;;;;;;5047743;28;20298;-84
2022/07/17 05:00:00;;;;;;;1.42;1.00;;;;;;;;;;5051520;28;20210;-83
2022/07/17 05:02:27;;;;;;;1.30;1.20;;;;;;;;;;5050738;28;20351;-83
2022/07/17 05:04:56;;;;;;;0.82;0.80;;;;;;;;;;5051879;28;20202;-83
2022/07/17 05:07:24;;;;;;;2.42;0.77;;;;;;;;;;5050352;28;20296;-83
2022/07/17 05:09:52;;;;;;;0.90;0.90;;;;;;;;;;5046056;28;20231;-83
2022/07/17 05:12:19;;;;;;;0.88;0.73;;;;;;;;;;5051933;28;20275;-83
2022/07/17 05:14:47;;;;;;;2.45;1.52;;;;;;;;;;5051739;28;20674;-83
2022/07/17 05:17:14;;;;;;;0.80;0.80;;;;;;;;;;5049874;28;20206;-84
2022/07/17 05:19:42;;;;;;;0.80;0.80;;;;;;;;;;5047442;28;20202;-82
2022/07/17 05:22:11;;;;;;;1.35;1.25;;;;;;;;;;5051026;28;20252;-82
2022/07/17 05:24:39;;;;;;;1.33;1.20;;;;;;;;;;5048474;28;20261;-82
2022/07/17 05:27:07;;;;;;;0.90;0.90;;;;;;;;;;5049682;28;20210;-83
2022/07/17 05:29:34;;;;;;;1.45;1.10;;;;;;;;;;5050339;28;20233;-82
2022/07/17 05:32:01;;;;;;;1.00;1.00;;;;;;;;;;5048176;28;20248;-83
2022/07/17 05:34:29;;;;;;;1.63;1.05;;;;;;;;;;5049958;28;20253;-83
2022/07/17 05:36:57;;;;;;;1.92;1.40;;;;;;;;;;5049452;28;20720;-83
2022/07/17 05:39:26;;;;;;;2.35;2.10;;;;;;;;;;5050415;28;20241;-83
2022/07/17 05:41:53;;;;;;;1.23;1.00;;;;;;;;;;5054048;28;20309;-83
2022/07/17 05:44:21;;;;;;;1.10;1.08;;;;;;;;;;5046940;28;20300;-83
2022/07/17 05:46:48;;;;;;;1.67;1.38;;;;;;;;;;5055765;28;20642;-83
2022/07/17 05:49:16;;;;;;;1.90;1.40;;;;;;;;;;5056460;28;20284;-82
2022/07/17 05:51:43;;;;;;;1.52;1.42;;;;;;;;;;5056921;28;20704;-82
2022/07/17 05:54:11;;;;;;;1.85;1.50;;;;;;;;;;5056368;28;20263;-83
2022/07/17 05:56:40;;;;;;;1.08;1.08;;;;;;;;;;5056013;28;20229;-83
2022/07/17 05:59:07;;;;;;;1.42;1.00;;;;;;;;;;5053609;28;20221;-83
2022/07/17 06:01:35;;;;;;;1.10;1.00;;;;;;;;;;5053298;28;20253;-83
2022/07/17 06:04:03;;;;;;;1.10;1.00;;;;;;;;;;5036214;28;20658;-83
2022/07/17 06:06:31;;;;;;;1.23;1.10;;;;;;;;;;5052927;28;20221;-83
2022/07/17 06:08:58;;;;;;;1.63;1.05;;;;;;;;;;5051570;28;20252;-83
2022/07/17 06:11:26;;;;;;;1.30;1.20;;;;;;;;;;5054480;28;20699;-83
2022/07/17 06:13:55;;;;;;;1.13;1.13;;;;;;;;;;5050015;28;20221;-83
2022/07/17 06:16:22;;;;;;;1.30;1.02;;;;;;;;;;5052415;28;20236;-83
2022/07/17 06:18:50;;;;;;;1.20;1.10;;;;;;;;;;5049936;28;20230;-82
2022/07/17 06:21:18;;;;;;;2.00;1.17;;;;;;;;;;5047518;28;22115;-83
2022/07/17 06:23:45;;;;;;;0.98;0.98;;;;;;;;;;5047957;28;20256;-83
2022/07/17 06:26:13;;;;;;;6.82;1.50;;;;;;;;;;5045935;28;20221;-84
2022/07/17 06:28:41;;;;;;;2.25;1.17;;;;;;;;;;5053066;28;20244;-83
2022/07/17 06:31:09;;;;;;;0.90;0.90;;;;;;;;;;5050942;28;20252;-84
2022/07/17 06:33:38;;;;;;;1.33;1.23;;;;;;;;;;5053545;28;20249;-84
2022/07/17 06:36:05;;;;;;;1.05;1.00;;;;;;;;;;5054655;28;20224;-84
2022/07/17 06:38:34;;;;;;;1.55;1.13;;;;;;;;;;5053125;28;20225;-83
2022/07/17 06:41:02;;;;;;;2.30;1.40;;;;;;;;;;5055890;28;20225;-83
2022/07/17 06:43:30;;;;;;;1.70;1.30;;;;;;;;;;5052825;28;20312;-83
2022/07/17 06:45:57;;;;;;;1.73;1.25;;;;;;;;;;5046022;28;20208;-84
2022/07/17 06:48:26;;;;;;;1.42;1.30;;;;;;;;;;5055373;28;20221;-84
2022/07/17 06:50:54;;;;;;;2.80;1.40;;;;;;;;;;5054844;28;20225;-83
2022/07/17 06:53:21;;;;;;;2.53;1.70;;;;;;;;;;5057319;28;20252;-83
2022/07/17 06:55:50;;;;;;;2.53;1.58;;;;;;;;;;5057078;28;20219;-84
2022/07/17 06:58:17;;;;;;;3.13;1.35;;;;;;;;;;5058206;28;20672;-83
2022/07/17 07:00:45;;;;;;;2.25;1.58;;;;;;;;;;5056390;28;21767;-83
2022/07/17 07:03:13;;;;;;;2.25;1.13;;;;;;;;;;5056603;28;20862;-84
2022/07/17 07:05:41;;;;;;;2.05;1.10;;;;;;;;;;5060141;28;20233;-83
2022/07/17 07:08:09;;;;;;;1.15;1.05;;;;;;;;;;5058091;28;20639;-83
2022/07/17 07:10:37;;;;;;;1.05;1.05;;;;;;;;;;5058812;28;20240;-84
2022/07/17 07:13:05;;;;;;;2.08;1.27;;;;;;;;;;5059282;28;20312;-83
2022/07/17 07:15:32;;;;;;;2.85;2.15;;;;;;;;;;5056053;28;20748;-83
2022/07/17 07:18:00;;;;;;;4.32;1.30;;;;;;;;;;5057173;28;20251;-83
2022/07/17 07:20:27;;;;;;;2.50;1.42;;;;;;;;;;5058314;28;20237;-84
2022/07/17 07:22:56;;;;;;;4.15;1.67;;;;;;;;;;5059701;28;20218;-84
2022/07/17 07:25:24;;;;;;;1.15;1.00;;;;;;;;;;5054436;28;20232;-82
2022/07/17 07:27:51;;;;;;;1.75;1.25;;;;;;;;;;5056048;28;20206;-84
2022/07/17 07:30:19;;;;;;;1.98;1.73;;;;;;;;;;5059804;28;20691;-83
2022/07/17 07:32:47;;;;;;;1.42;1.00;;;;;;;;;;5057087;28;20245;-84
2022/07/17 07:35:14;;;;;;;0.85;0.85;;;;;;;;;;5057693;28;20229;-84
2022/07/17 07:37:42;;;;;;;1.80;1.65;;;;;;;;;;5055923;28;20217;-83
2022/07/17 07:40:13;;;;;;;1.05;0.98;;;;;;;;;;5056718;28;20256;-84
2022/07/17 07:42:40;;;;;;;1.90;1.05;;;;;;;;;;5056160;28;20222;-83
2022/07/17 07:45:11;;;;;;;1.88;1.00;;;;;;;;;;5056121;28;20205;-83
2022/07/17 07:47:43;;;;;;;1.65;1.10;;;;;;;;;;5056427;28;20197;-85
2022/07/17 07:50:12;;;;;;;0.88;0.88;;;;;;;;;;5055215;28;20224;-84
2022/07/17 07:52:40;;;;;;;1.50;0.90;;;;;;;;;;5055721;28;20202;-85
2022/07/17 07:55:10;;;;;;;5.07;1.67;;;;;;;;;;5056567;28;20212;-84
2022/07/17 07:57:38;;;;;;;1.88;1.00;;;;;;;;;;5056320;28;20256;-85
2022/07/17 08:00:10;;;;;;;1.83;1.27;;;;;;;;;;5054763;28;20201;-83
2022/07/17 08:02:38;;;;;;;0.68;0.68;;;;;;;;;;5056344;28;20222;-85
2022/07/17 08:05:06;;;;;;;1.10;1.08;;;;;;;;;;5056254;28;20283;-84
2022/07/17 08:07:37;;;;;;;0.77;0.77;;;;;;;;;;5056161;28;20233;-85
2022/07/17 08:10:05;;;;;;;0.70;0.70;;;;;;;;;;5056327;28;20208;-84
2022/07/17 08:12:34;;;;;;;5.53;1.73;;;;;;;;;;5052355;28;20237;-82
2022/07/17 08:15:02;;;;;;;1.65;1.10;;;;;;;;;;5054133;28;20233;-84
2022/07/17 08:17:29;;;;;;;1.38;1.08;;;;;;;;;;5054273;28;20665;-85
2022/07/17 08:20:00;;;;;;;3.10;1.20;;;;;;;;;;5053984;28;20300;-84
2022/07/17 08:22:27;;;;;;;1.25;1.08;;;;;;;;;;5052188;28;20252;-84
2022/07/17 08:24:55;;;;;;;0.85;0.82;;;;;;;;;;5052240;28;20200;-86
2022/07/17 08:27:39;;;;;;;1.75;1.58;;;;;;;;;;5054753;28;20626;-84
2022/07/17 08:30:11;;;;;;;1.83;0.82;;;;;;;;;;5051206;28;20206;-86
2022/07/17 08:32:47;;;;;;;0.85;0.85;;;;;;;;;;5051607;28;20255;-87
2022/07/17 08:35:18;;;;;;;1.40;1.13;;;;;;;;;;5051806;28;20285;-84
2022/07/17 08:37:57;;;;;;;1.33;1.10;;;;;;;;;;5048502;28;20284;-85
2022/07/17 08:40:36;;;;;;;0.80;0.80;;;;;;;;;;5049093;28;20274;-87
2022/07/17 08:43:06;;;;;;;1.95;1.83;;;;;;;;;;5050197;28;20231;-87
2022/07/17 08:45:37;;;;;;;1.00;0.90;;;;;;;;;;5045017;28;20229;-87
2022/07/17 08:48:24;;;;;;;0.88;0.88;;;;;;;;;;5052039;28;20218;-85
2022/07/17 08:51:00;;;;;;;3.63;2.20;;;;;;;;;;5046245;28;20753;-86
2022/07/17 08:53:39;;;;;;;1.35;1.02;;;;;;;;;;5050131;28;20232;-85
2022/07/17 08:56:21;;;;;;;1.88;1.05;;;;;;;;;;5051892;28;20213;-84
2022/07/17 09:01:57;;;;;;;1.23;1.00;;;;;;;;;;5052164;28;20286;-84
2022/07/17 09:04:39;;;;;;;1.80;0.90;;;;;;;;;;5045125;28;20577;-85
2022/07/17 09:07:26;;;;;;;2.17;0.90;;;;;;;;;;5053247;28;20243;-85
2022/07/17 09:09:59;;;;;;;1.00;1.00;;;;;;;;;;5052819;28;20208;-85
2022/07/17 09:12:31;;;;;;;1.52;0.90;;;;;;;;;;5051352;28;20208;-85
2022/07/17 09:15:16;;;;;;;1.17;1.00;;;;;;;;;;5053394;28;20706;-85
2022/07/17 09:18:08;;;;;;;0.90;0.80;;;;;;;;;;5053266;28;20673;-84
2022/07/17 09:20:42;;;;;;;1.75;1.45;;;;;;;;;;5053348;28;20699;-85
2022/07/17 09:23:20;;;;;;;1.10;0.80;;;;;;;;;;5052560;28;20581;-86
2022/07/17 09:26:28;;;;;;;4.63;1.30;;;;;;;;;;5045945;28;20209;-87
2022/07/17 09:29:11;;;;;;;1.52;1.13;;;;;;;;;;5034168;28;20575;-86
2022/07/17 09:31:49;;;;;;;1.42;0.93;;;;;;;;;;5033080;28;20211;-86
2022/07/17 09:34:25;;;;;;;1.10;1.00;;;;;;;;;;5052638;28;20225;-86
2022/07/17 09:37:14;;;;;;;2.33;1.08;;;;;;;;;;5052130;28;20209;-86
2022/07/17 09:39:56;;;;;;;0.80;0.80;;;;;;;;;;5047307;28;20743;-87
2022/07/17 09:42:56;;;;;;;1.27;0.80;;;;;;;;;;5052358;28;20577;-86
2022/07/17 09:45:33;;;;;;;0.90;0.80;;;;;;;;;;5044867;28;20201;-86
2022/07/17 09:48:20;;;;;;;2.67;1.02;;;;;;;;;;5050228;28;20198;-90
2022/07/17 09:51:00;;;;;;;1.70;0.77;;;;;;;;;;5052026;28;20657;-86
2022/07/17 09:53:27;;;;;;;0.85;0.85;;;;;;;;;;5044457;28;20229;-88
2022/07/17 09:55:58;;;;;;;1.83;0.85;;;;;;;;;;5053815;28;20243;-87
2022/07/17 09:58:27;;;;;;;2.05;1.17;;;;;;;;;;5052889;28;20604;-90
2022/07/17 10:01:11;;;;;;;1.20;1.17;;;;;;;;;;5033799;28;20280;-88
2022/07/17 10:03:41;;;;;;;1.05;1.05;;;;;;;;;;5044004;28;20232;-88
2022/07/17 10:06:15;;;;;;;1.13;0.75;;;;;;;;;;5052515;28;20362;-87
2022/07/17 10:08:43;;;;;;;0.77;0.73;;;;;;;;;;5052240;28;20292;-86
2022/07/17 10:11:11;;;;;;;0.80;0.80;;;;;;;;;;5050016;28;20617;-84
2022/07/17 10:13:41;;;;;;;1.00;0.90;;;;;;;;;;5052133;28;20735;-87
2022/07/17 10:16:09;;;;;;;1.20;1.00;;;;;;;;;;5050943;28;20202;-86
2022/07/17 10:18:43;;;;;;;0.88;0.88;;;;;;;;;;5052137;28;20202;-87
2022/07/17 10:21:21;;;;;;;1.63;0.98;;;;;;;;;;5051829;28;20217;-85
2022/07/17 10:24:06;;;;;;;0.80;0.80;;;;;;;;;;5052202;28;20225;-87
2022/07/17 10:26:34;;;;;;;1.00;0.88;;;;;;;;;;5050389;28;20229;-85
2022/07/17 10:29:02;;;;;;;1.55;0.90;;;;;;;;;;5045684;28;20202;-84
2022/07/17 10:31:31;;;;;;;1.85;1.23;;;;;;;;;;5052171;28;20203;-85
2022/07/17 10:34:03;;;;;;;0.73;0.73;;;;;;;;;;5034594;28;20225;-85
2022/07/17 10:36:36;;;;;;;0.70;0.70;;;;;;;;;;5052962;28;20200;-85
2022/07/17 10:39:15;;;;;;;1.35;1.00;;;;;;;;;;5053923;28;20269;-84
2022/07/17 10:41:43;;;;;;;1.35;1.20;;;;;;;;;;5051427;28;20210;-83
2022/07/17 10:44:11;;;;;;;0.80;0.80;;;;;;;;;;5051181;28;20308;-85
2022/07/17 10:46:39;;;;;;;2.47;1.00;;;;;;;;;;5045098;28;20198;-85
2022/07/17 10:49:07;;;;;;;0.63;0.63;;;;;;;;;;5054300;28;20204;-83
2022/07/17 10:51:35;;;;;;;1.08;0.93;;;;;;;;;;5044632;28;20289;-85
2022/07/17 10:54:03;;;;;;;0.90;0.90;;;;;;;;;;5046711;28;20218;-85
2022/07/17 10:56:31;;;;;;;0.75;0.75;;;;;;;;;;5046740;28;20296;-85
2022/07/17 10:59:03;;;;;;;0.88;0.80;;;;;;;;;;5049949;28;20304;-84
2022/07/17 11:01:31;;;;;;;1.80;1.05;;;;;;;;;;5052676;28;20205;-85
2022/07/17 11:04:02;;;;;;;0.80;0.80;;;;;;;;;;5052987;28;20597;-86
2022/07/17 11:06:33;;;;;;;1.10;0.77;;;;;;;;;;5052532;28;20263;-85
2022/07/17 11:09:04;;;;;;;0.85;0.73;;;;;;;;;;5053001;28;20291;-85
2022/07/17 11:11:52;;;;;;;0.60;0.60;;;;;;;;;;5052279;28;20240;-85
2022/07/17 11:14:35;;;;;;;0.90;0.90;;;;;;;;;;5051565;28;20210;-87
2022/07/17 11:17:04;;;;;;;2.25;0.80;;;;;;;;;;5051495;28;20411;-86
2022/07/17 11:19:55;;;;;;;0.73;0.73;;;;;;;;;;5051790;28;20300;-87
2022/07/17 11:22:40;;;;;;;0.90;0.90;;;;;;;;;;5051731;28;20202;-86
2022/07/17 11:28:03;;;;;;;1.73;0.70;;;;;;;;;;5050306;28;20201;-87
2022/07/17 11:30:55;;;;;;;;;;;;;;;;;;;;;
2022/07/17 11:33:55;;;;;;;1.65;1.02;;;;;;;;;;5052131;28;20222;-86
2022/07/17 11:36:38;;;;;;;1.00;1.00;;;;;;;;;;5048976;28;20256;-87
2022/07/17 11:45:04;;;;;;;0.70;0.70;;;;;;;;;;5121245;27;20560;-81
2022/07/17 11:47:31;;;;;;;0.70;0.70;;;;;;;;;;5120847;28;20204;-79
2022/07/17 11:50:12;;;;;;;1.83;0.90;;;;;;;;;;5118685;28;20195;-80
2022/07/17 11:52:45;;;;;;;0.57;0.57;;;;;;;;;;5119753;28;20191;-79
2022/07/17 11:55:14;;;;;;;0.77;0.77;;;;;;;;;;5118831;28;20203;-80
2022/07/17 11:57:47;;;;;;;0.52;0.52;;;;;;;;;;5119345;28;20203;-80
2022/07/17 12:00:19;;;;;;;0.70;0.70;;;;;;;;;;5120201;27;20265;-80
2022/07/17 12:02:47;;;;;;;1.27;0.60;;;;;;;;;;5121824;28;20241;-81
2022/07/17 12:05:15;;;;;;;0.70;0.70;;;;;;;;;;5120078;28;20200;-80
2022/07/17 12:07:45;;;;;;;1.85;0.80;;;;;;;;;;5119437;28;20231;-82
2022/07/17 12:10:15;;;;;;;0.65;0.65;;;;;;;;;;5119839;28;20672;-82
2022/07/17 12:12:56;;;;;;;0.65;0.65;;;;;;;;;;5120368;28;20208;-81
2022/07/17 12:15:36;;;;;;;1.25;1.10;;;;;;;;;;5122189;28;20204;-80
2022/07/17 12:18:05;;;;;;;0.98;0.85;;;;;;;;;;5117220;28;20199;-81
2022/07/17 12:20:43;;;;;;;0.85;0.85;;;;;;;;;;5116978;28;20675;-80
2022/07/17 12:23:26;;;;;;;0.73;0.73;;;;;;;;;;5118859;28;20219;-80
2022/07/17 12:26:05;;;;;;;1.27;0.80;;;;;;;;;;5119946;28;20210;-82
2022/07/17 12:28:33;;;;;;;0.80;0.80;;;;;;;;;;5119523;28;20188;-81
2022/07/17 12:31:02;;;;;;;0.70;0.70;;;;;;;;;;5119457;28;20227;-80
2022/07/17 12:33:30;;;;;;;1.17;1.10;;;;;;;;;;5119830;28;20287;-81
2022/07/17 12:35:58;;;;;;;1.27;0.90;;;;;;;;;;5119560;28;20204;-82
2022/07/17 12:38:26;;;;;;;0.73;0.73;;;;;;;;;;5121314;28;20196;-80
2022/07/17 12:40:53;;;;;;;0.70;0.70;;;;;;;;;;5117965;28;20290;-82
2022/07/17 12:43:21;;;;;;;0.90;0.90;;;;;;;;;;5117542;28;20223;-81
2022/07/17 12:45:48;;;;;;;0.90;0.90;;;;;;;;;;5120113;28;20385;-82
2022/07/17 12:48:17;;;;;;;1.27;0.90;;;;;;;;;;5118874;28;20211;-82
2022/07/17 12:50:45;;;;;;;0.70;0.70;;;;;;;;;;5119373;28;20231;-81
2022/07/17 12:53:13;;;;;;;0.70;0.70;;;;;;;;;;5119720;28;20731;-82
2022/07/17 12:55:40;;;;;;;0.73;0.73;;;;;;;;;;5116405;28;20200;-83
2022/07/17 12:58:09;;;;;;;1.33;0.90;;;;;;;;;;5123192;27;20239;-83
2022/07/17 13:00:36;;;;;;;1.02;0.95;;;;;;;;;;5124179;28;20609;-83
2022/07/17 13:03:04;;;;;;;2.80;0.93;;;;;;;;;;5124093;28;20219;-81
2022/07/17 13:05:33;;;;;;;0.80;0.80;;;;;;;;;;5123725;28;20220;-82
2022/07/17 13:08:01;;;;;;;0.90;0.90;;;;;;;;;;5123476;27;20239;-83
2022/07/17 13:10:28;;;;;;;1.38;1.05;;;;;;;;;;5121247;28;20656;-82
2022/07/17 13:15:24;;;;;;;0.90;0.88;;;;;;;;;;5018923;28;20211;-82
2022/07/17 13:17:52;;;;;;;0.70;0.70;;;;;;;;;;5019382;28;20660;-80
2022/07/17 13:20:19;;;;;;;1.00;1.00;;;;;;;;;;5019417;28;20246;-80
2022/07/17 13:22:48;;;;;;;1.17;0.98;;;;;;;;;;5019070;28;20787;-80
2022/07/17 13:25:16;;;;;;;0.77;0.77;;;;;;;;;;5020473;28;20234;-79
2022/07/17 13:27:44;;;;;;;0.80;0.80;;;;;;;;;;5018491;28;20203;-79
2022/07/17 13:30:13;;;;;;;0.80;0.80;;;;;;;;;;5018265;28;20211;-81
2022/07/17 13:32:40;;;;;;;0.90;0.90;;;;;;;;;;5019160;28;20209;-80
2022/07/17 13:35:09;;;;;;;0.80;0.80;;;;;;;;;;5019909;28;20254;-81
2022/07/17 13:37:37;;;;;;;1.08;0.80;;;;;;;;;;5018650;28;20238;-79
2022/07/17 13:40:09;;;;;;;0.85;0.85;;;;;;;;;;5020567;28;20207;-81
2022/07/17 13:42:36;;;;;;;0.95;0.95;;;;;;;;;;5019461;28;20203;-80
2022/07/17 13:45:05;;;;;;;0.70;0.70;;;;;;;;;;5020135;28;20262;-80
2022/07/17 13:47:33;;;;;;;0.73;0.73;;;;;;;;;;5020893;28;20269;-79
2022/07/17 13:50:00;;;;;;;1.33;1.23;;;;;;;;;;5018219;28;20238;-78
2022/07/17 13:52:28;;;;;;;1.55;0.93;;;;;;;;;;5018329;28;20232;-79
2022/07/17 13:54:55;;;;;;;0.77;0.77;;;;;;;;;;5019401;28;20258;-80
2022/07/17 13:57:24;;;;;;;0.73;0.63;;;;;;;;;;5018831;28;20687;-78
2022/07/17 13:59:52;;;;;;;0.85;0.80;;;;;;;;;;5020215;28;20238;-80
2022/07/17 14:02:19;;;;;;;0.80;0.80;;;;;;;;;;5021792;28;20249;-81
2022/07/17 14:04:47;;;;;;;0.75;0.75;;;;;;;;;;5019290;28;20231;-82
2022/07/17 14:07:15;;;;;;;0.50;0.50;;;;;;;;;;5017674;28;20241;-82
2022/07/17 14:09:42;;;;;;;0.63;0.63;;;;;;;;;;5021271;28;20574;-79
2022/07/17 14:12:10;;;;;;;0.70;0.70;;;;;;;;;;5018954;28;20198;-81
2022/07/17 14:14:39;;;;;;;0.80;0.80;;;;;;;;;;5019028;28;20608;-80
2022/07/17 14:17:07;;;;;;;0.93;0.80;;;;;;;;;;5019314;28;20241;-79
2022/07/17 14:19:36;;;;;;;0.60;0.60;;;;;;;;;;5018717;28;20254;-80
2022/07/17 14:22:03;;;;;;;0.70;0.70;;;;;;;;;;5019502;28;20198;-81
2022/07/17 14:24:31;;;;;;;0.93;0.93;;;;;;;;;;5019209;28;20231;-80
2022/07/17 14:26:59;;;;;;;0.70;0.70;;;;;;;;;;5021868;28;20217;-81
2022/07/17 14:29:26;;;;;;;0.93;0.88;;;;;;;;;;5021356;28;20207;-81
2022/07/17 14:31:55;;;;;;;0.60;0.60;;;;;;;;;;5019434;28;20691;-81
2022/07/17 14:34:23;;;;;;;1.08;0.93;;;;;;;;;;5022571;28;20215;-81
2022/07/17 14:36:51;;;;;;;0.90;0.90;;;;;;;;;;5020150;28;20202;-80
2022/07/17 14:39:18;;;;;;;0.70;0.70;;;;;;;;;;5021519;28;20289;-80
2022/07/17 14:41:46;;;;;;;1.08;0.55;;;;;;;;;;5022146;28;20230;-78
2022/07/17 14:44:14;;;;;;;0.80;0.80;;;;;;;;;;5020532;28;20229;-80
2022/07/17 14:46:42;;;;;;;0.65;0.65;;;;;;;;;;5020969;28;20223;-80
2022/07/17 14:49:11;;;;;;;0.57;0.57;;;;;;;;;;5021554;28;20649;-79
2022/07/17 14:51:38;;;;;;;0.70;0.70;;;;;;;;;;5013087;28;20560;-82
2022/07/17 14:54:06;;;;;;;0.82;0.82;;;;;;;;;;5003018;28;20235;-80
2022/07/17 14:56:34;;;;;;;1.08;0.88;;;;;;;;;;5014194;28;20203;-80
2022/07/17 14:59:01;;;;;;;1.52;0.85;;;;;;;;;;5019163;28;20234;-80
2022/07/17 15:01:29;;;;;;;3.05;0.80;;;;;;;;;;5021324;28;20258;-81
2022/07/17 15:03:56;;;;;;;0.50;0.50;;;;;;;;;;5019844;28;20223;-80
2022/07/17 15:06:25;;;;;;;0.70;0.70;;;;;;;;;;5021828;28;20325;-82
2022/07/17 15:08:53;;;;;;;0.93;0.93;;;;;;;;;;5022151;28;20289;-81
2022/07/17 15:11:20;;;;;;;0.60;0.60;;;;;;;;;;5020298;28;20222;-79
2022/07/17 15:13:48;;;;;;;0.73;0.73;;;;;;;;;;5019705;28;20598;-80